sensor_id;sensor_type;location;lat;lon;timestamp;P1;durP1;ratioP1;P2;durP2;ratioP2
48516;SDS011;34310;51.904;4.256;2022-10-30T00:00:57;74.05;;;55.72;;
48516;SDS011;34310;51.904;4.256;2022-10-30T00:03:24;72.53;;;56.42;;
48516;SDS011;34310;51.904;4.256;2022-10-30T00:05:51;71.72;;;54.10;;
48516;SDS011;34310;51.904;4.256;2022-10-30T00:08:20;71.20;;;54.85;;
48516;SDS011;34310;51.904;4.256;2022-10-30T00:10:48;71.68;;;54.17;;
48516;SDS011;34310;51.904;4.256;2022-10-30T00:13:15;71.75;;;54.97;;
48516;SDS011;34310;51.904;4.256;2022-10-30T00:15:50;74.43;;;56.80;;
48516;SDS011;34310;51.904;4.256;2022-10-30T00:18:19;71.88;;;55.85;;
48516;SDS011;34310;51.904;4.256;2022-10-30T00:20:46;72.22;;;55.45;;
48516;SDS011;34310;51.904;4.256;2022-10-30T00:23:14;65.72;;;51.63;;
48516;SDS011;34310;51.904;4.256;2022-10-30T00:25:42;69.30;;;53.22;;
48516;SDS011;34310;51.904;4.256;2022-10-30T00:28:09;66.93;;;51.55;;
48516;SDS011;34310;51.904;4.256;2022-10-30T00:30:36;68.15;;;53.70;;
48516;SDS011;34310;51.904;4.256;2022-10-30T00:33:04;69.25;;;52.58;;
48516;SDS011;34310;51.904;4.256;2022-10-30T00:35:31;69.82;;;54.83;;
48516;SDS011;34310;51.904;4.256;2022-10-30T00:37:59;66.85;;;51.53;;
48516;SDS011;34310;51.904;4.256;2022-10-30T00:40:27;69.13;;;52.47;;
48516;SDS011;34310;51.904;4.256;2022-10-30T00:42:54;66.18;;;50.70;;
48516;SDS011;34310;51.904;4.256;2022-10-30T00:45:21;65.30;;;50.38;;
48516;SDS011;34310;51.904;4.256;2022-10-30T00:47:54;63.22;;;47.53;;
48516;SDS011;34310;51.904;4.256;2022-10-30T00:50:28;64.25;;;49.70;;
48516;SDS011;34310;51.904;4.256;2022-10-30T00:53:01;63.72;;;49.28;;
48516;SDS011;34310;51.904;4.256;2022-10-30T00:55:36;60.92;;;47.42;;
48516;SDS011;34310;51.904;4.256;2022-10-30T00:58:09;59.97;;;46.95;;
48516;SDS011;34310;51.904;4.256;2022-10-30T01:00:41;61.15;;;46.72;;
48516;SDS011;34310;51.904;4.256;2022-10-30T01:03:14;60.50;;;46.47;;
48516;SDS011;34310;51.904;4.256;2022-10-30T01:05:41;61.85;;;46.65;;
48516;SDS011;34310;51.904;4.256;2022-10-30T01:08:11;58.45;;;45.95;;
48516;SDS011;34310;51.904;4.256;2022-10-30T01:10:39;59.20;;;45.55;;
48516;SDS011;34310;51.904;4.256;2022-10-30T01:13:07;57.50;;;44.70;;
48516;SDS011;34310;51.904;4.256;2022-10-30T01:15:35;55.20;;;43.58;;
48516;SDS011;34310;51.904;4.256;2022-10-30T01:23:59;54.17;;;41.80;;
48516;SDS011;34310;51.904;4.256;2022-10-30T01:26:37;55.60;;;41.88;;
48516;SDS011;34310;51.904;4.256;2022-10-30T01:29:19;53.80;;;41.75;;
48516;SDS011;34310;51.904;4.256;2022-10-30T01:32:09;53.88;;;40.35;;
48516;SDS011;34310;51.904;4.256;2022-10-30T01:40:32;49.47;;;37.40;;
48516;SDS011;34310;51.904;4.256;2022-10-30T01:42:59;49.15;;;38.78;;
48516;SDS011;34310;51.904;4.256;2022-10-30T01:48:26;47.67;;;37.47;;
48516;SDS011;34310;51.904;4.256;2022-10-30T01:51:11;46.80;;;36.13;;
48516;SDS011;34310;51.904;4.256;2022-10-30T02:00:09;42.90;;;35.05;;
48516;SDS011;34310;51.904;4.256;2022-10-30T02:02:41;44.38;;;33.72;;
48516;SDS011;34310;51.904;4.256;2022-10-30T02:05:09;40.65;;;32.63;;
48516;SDS011;34310;51.904;4.256;2022-10-30T02:07:42;42.30;;;32.10;;
48516;SDS011;34310;51.904;4.256;2022-10-30T02:10:10;42.80;;;32.20;;
48516;SDS011;34310;51.904;4.256;2022-10-30T02:12:37;38.42;;;30.17;;
48516;SDS011;34310;51.904;4.256;2022-10-30T02:15:05;41.75;;;31.05;;
48516;SDS011;34310;51.904;4.256;2022-10-30T02:17:33;39.03;;;29.73;;
48516;SDS011;34310;51.904;4.256;2022-10-30T02:20:00;38.40;;;31.27;;
48516;SDS011;34310;51.904;4.256;2022-10-30T02:22:27;37.40;;;30.55;;
48516;SDS011;34310;51.904;4.256;2022-10-30T02:24:54;37.83;;;27.88;;
48516;SDS011;34310;51.904;4.256;2022-10-30T02:27:22;37.30;;;29.38;;
48516;SDS011;34310;51.904;4.256;2022-10-30T02:29:49;34.92;;;28.30;;
48516;SDS011;34310;51.904;4.256;2022-10-30T02:32:16;35.35;;;27.45;;
48516;SDS011;34310;51.904;4.256;2022-10-30T02:34:43;38.35;;;28.13;;
48516;SDS011;34310;51.904;4.256;2022-10-30T02:37:11;35.75;;;27.52;;
48516;SDS011;34310;51.904;4.256;2022-10-30T02:39:38;32.67;;;26.80;;
48516;SDS011;34310;51.904;4.256;2022-10-30T02:42:05;35.03;;;26.88;;
48516;SDS011;34310;51.904;4.256;2022-10-30T02:44:32;33.63;;;25.27;;
48516;SDS011;34310;51.904;4.256;2022-10-30T02:47:00;34.00;;;25.63;;
48516;SDS011;34310;51.904;4.256;2022-10-30T02:49:27;32.03;;;25.27;;
48516;SDS011;34310;51.904;4.256;2022-10-30T02:51:54;31.02;;;25.13;;
48516;SDS011;34310;51.904;4.256;2022-10-30T02:54:22;33.00;;;25.48;;
48516;SDS011;34310;51.904;4.256;2022-10-30T02:56:49;32.17;;;25.90;;
48516;SDS011;34310;51.904;4.256;2022-10-30T02:59:16;29.90;;;24.35;;
48516;SDS011;34310;51.904;4.256;2022-10-30T03:01:45;31.88;;;24.20;;
48516;SDS011;34310;51.904;4.256;2022-10-30T03:04:13;30.83;;;24.83;;
48516;SDS011;34310;51.904;4.256;2022-10-30T03:06:40;31.58;;;24.77;;
48516;SDS011;34310;51.904;4.256;2022-10-30T03:09:07;29.27;;;22.38;;
48516;SDS011;34310;51.904;4.256;2022-10-30T03:11:34;28.95;;;22.75;;
48516;SDS011;34310;51.904;4.256;2022-10-30T03:14:02;29.70;;;22.13;;
48516;SDS011;34310;51.904;4.256;2022-10-30T03:16:29;26.10;;;21.27;;
48516;SDS011;34310;51.904;4.256;2022-10-30T03:18:58;26.30;;;21.05;;
48516;SDS011;34310;51.904;4.256;2022-10-30T03:21:26;30.17;;;21.95;;
48516;SDS011;34310;51.904;4.256;2022-10-30T03:23:54;29.58;;;20.58;;
48516;SDS011;34310;51.904;4.256;2022-10-30T03:26:22;27.20;;;21.05;;
48516;SDS011;34310;51.904;4.256;2022-10-30T03:28:49;26.05;;;20.23;;
48516;SDS011;34310;51.904;4.256;2022-10-30T03:31:17;24.80;;;18.42;;
48516;SDS011;34310;51.904;4.256;2022-10-30T03:33:45;25.10;;;19.83;;
48516;SDS011;34310;51.904;4.256;2022-10-30T03:36:13;24.90;;;18.80;;
48516;SDS011;34310;51.904;4.256;2022-10-30T03:38:41;26.80;;;18.90;;
48516;SDS011;34310;51.904;4.256;2022-10-30T03:41:08;23.33;;;16.92;;
48516;SDS011;34310;51.904;4.256;2022-10-30T03:43:35;23.15;;;17.85;;
48516;SDS011;34310;51.904;4.256;2022-10-30T03:46:03;23.27;;;17.58;;
48516;SDS011;34310;51.904;4.256;2022-10-30T03:48:30;28.23;;;18.90;;
48516;SDS011;34310;51.904;4.256;2022-10-30T03:50:58;24.73;;;18.27;;
48516;SDS011;34310;51.904;4.256;2022-10-30T03:53:26;23.55;;;17.98;;
48516;SDS011;34310;51.904;4.256;2022-10-30T03:56:01;23.08;;;17.48;;
48516;SDS011;34310;51.904;4.256;2022-10-30T03:58:29;22.63;;;17.10;;
48516;SDS011;34310;51.904;4.256;2022-10-30T04:01:03;23.50;;;17.70;;
48516;SDS011;34310;51.904;4.256;2022-10-30T04:03:32;21.95;;;16.67;;
48516;SDS011;34310;51.904;4.256;2022-10-30T04:05:59;23.85;;;16.67;;
48516;SDS011;34310;51.904;4.256;2022-10-30T04:08:27;21.75;;;15.85;;
48516;SDS011;34310;51.904;4.256;2022-10-30T04:10:54;21.73;;;15.75;;
48516;SDS011;34310;51.904;4.256;2022-10-30T04:13:22;20.95;;;16.08;;
48516;SDS011;34310;51.904;4.256;2022-10-30T04:15:49;20.40;;;14.98;;
48516;SDS011;34310;51.904;4.256;2022-10-30T04:18:22;21.48;;;15.48;;
48516;SDS011;34310;51.904;4.256;2022-10-30T04:20:50;23.42;;;15.70;;
48516;SDS011;34310;51.904;4.256;2022-10-30T04:23:18;20.48;;;15.05;;
48516;SDS011;34310;51.904;4.256;2022-10-30T04:25:46;21.65;;;14.95;;
48516;SDS011;34310;51.904;4.256;2022-10-30T04:28:14;18.42;;;14.70;;
48516;SDS011;34310;51.904;4.256;2022-10-30T04:30:42;18.67;;;13.57;;
48516;SDS011;34310;51.904;4.256;2022-10-30T04:33:11;20.77;;;14.43;;
48516;SDS011;34310;51.904;4.256;2022-10-30T04:35:39;19.92;;;14.18;;
48516;SDS011;34310;51.904;4.256;2022-10-30T04:38:08;18.27;;;14.38;;
48516;SDS011;34310;51.904;4.256;2022-10-30T04:40:38;18.33;;;13.15;;
48516;SDS011;34310;51.904;4.256;2022-10-30T04:43:07;18.58;;;13.30;;
48516;SDS011;34310;51.904;4.256;2022-10-30T04:45:35;18.08;;;12.98;;
48516;SDS011;34310;51.904;4.256;2022-10-30T04:48:04;16.70;;;13.05;;
48516;SDS011;34310;51.904;4.256;2022-10-30T04:50:42;18.35;;;12.60;;
48516;SDS011;34310;51.904;4.256;2022-10-30T04:53:14;16.08;;;12.55;;
48516;SDS011;34310;51.904;4.256;2022-10-30T04:55:43;17.27;;;12.37;;
48516;SDS011;34310;51.904;4.256;2022-10-30T04:58:11;15.73;;;12.15;;
48516;SDS011;34310;51.904;4.256;2022-10-30T05:00:39;15.90;;;11.80;;
48516;SDS011;34310;51.904;4.256;2022-10-30T05:03:08;14.73;;;11.80;;
48516;SDS011;34310;51.904;4.256;2022-10-30T05:06:05;14.85;;;11.88;;
48516;SDS011;34310;51.904;4.256;2022-10-30T05:08:38;15.80;;;11.27;;
48516;SDS011;34310;51.904;4.256;2022-10-30T05:11:05;15.27;;;11.90;;
48516;SDS011;34310;51.904;4.256;2022-10-30T05:13:32;17.23;;;11.90;;
48516;SDS011;34310;51.904;4.256;2022-10-30T05:16:00;15.43;;;10.93;;
48516;SDS011;34310;51.904;4.256;2022-10-30T05:18:27;13.18;;;10.15;;
48516;SDS011;34310;51.904;4.256;2022-10-30T05:20:54;14.05;;;10.40;;
48516;SDS011;34310;51.904;4.256;2022-10-30T05:23:21;14.68;;;10.57;;
48516;SDS011;34310;51.904;4.256;2022-10-30T05:25:49;14.32;;;10.45;;
48516;SDS011;34310;51.904;4.256;2022-10-30T05:28:16;15.55;;;11.15;;
48516;SDS011;34310;51.904;4.256;2022-10-30T05:30:43;13.85;;;10.60;;
48516;SDS011;34310;51.904;4.256;2022-10-30T05:33:11;15.93;;;10.35;;
48516;SDS011;34310;51.904;4.256;2022-10-30T05:35:41;13.93;;;10.30;;
48516;SDS011;34310;51.904;4.256;2022-10-30T05:38:08;11.88;;;9.75;;
48516;SDS011;34310;51.904;4.256;2022-10-30T05:40:37;13.40;;;9.15;;
48516;SDS011;34310;51.904;4.256;2022-10-30T05:43:04;14.88;;;9.45;;
48516;SDS011;34310;51.904;4.256;2022-10-30T05:45:31;12.38;;;9.38;;
48516;SDS011;34310;51.904;4.256;2022-10-30T05:48:00;13.50;;;9.35;;
48516;SDS011;34310;51.904;4.256;2022-10-30T05:50:29;13.07;;;10.10;;
48516;SDS011;34310;51.904;4.256;2022-10-30T05:53:03;12.57;;;8.55;;
48516;SDS011;34310;51.904;4.256;2022-10-30T05:55:31;13.48;;;8.90;;
48516;SDS011;34310;51.904;4.256;2022-10-30T05:57:59;13.32;;;8.85;;
48516;SDS011;34310;51.904;4.256;2022-10-30T06:00:31;13.25;;;8.85;;
48516;SDS011;34310;51.904;4.256;2022-10-30T06:03:00;14.60;;;9.32;;
48516;SDS011;34310;51.904;4.256;2022-10-30T06:05:30;12.70;;;9.27;;
48516;SDS011;34310;51.904;4.256;2022-10-30T06:07:59;11.55;;;8.43;;
48516;SDS011;34310;51.904;4.256;2022-10-30T06:10:27;14.20;;;8.32;;
48516;SDS011;34310;51.904;4.256;2022-10-30T06:12:58;10.57;;;8.52;;
48516;SDS011;34310;51.904;4.256;2022-10-30T06:15:27;13.43;;;9.15;;
48516;SDS011;34310;51.904;4.256;2022-10-30T06:17:56;11.90;;;8.40;;
48516;SDS011;34310;51.904;4.256;2022-10-30T06:20:25;10.82;;;8.77;;
48516;SDS011;34310;51.904;4.256;2022-10-30T06:22:55;11.57;;;8.38;;
48516;SDS011;34310;51.904;4.256;2022-10-30T06:25:27;11.27;;;8.38;;
48516;SDS011;34310;51.904;4.256;2022-10-30T06:27:59;11.52;;;8.27;;
48516;SDS011;34310;51.904;4.256;2022-10-30T06:30:27;11.73;;;8.50;;
48516;SDS011;34310;51.904;4.256;2022-10-30T06:33:02;10.93;;;8.20;;
48516;SDS011;34310;51.904;4.256;2022-10-30T06:35:30;12.05;;;8.40;;
48516;SDS011;34310;51.904;4.256;2022-10-30T06:37:58;12.65;;;8.23;;
48516;SDS011;34310;51.904;4.256;2022-10-30T06:40:26;11.52;;;8.07;;
48516;SDS011;34310;51.904;4.256;2022-10-30T06:42:55;10.40;;;7.72;;
48516;SDS011;34310;51.904;4.256;2022-10-30T06:45:23;9.75;;;7.65;;
48516;SDS011;34310;51.904;4.256;2022-10-30T06:47:51;10.80;;;7.10;;
48516;SDS011;34310;51.904;4.256;2022-10-30T06:50:19;10.85;;;7.90;;
48516;SDS011;34310;51.904;4.256;2022-10-30T06:52:47;9.50;;;7.65;;
48516;SDS011;34310;51.904;4.256;2022-10-30T06:55:14;11.90;;;7.82;;
48516;SDS011;34310;51.904;4.256;2022-10-30T06:57:42;11.27;;;7.82;;
48516;SDS011;34310;51.904;4.256;2022-10-30T07:00:09;9.73;;;7.60;;
48516;SDS011;34310;51.904;4.256;2022-10-30T07:02:38;11.32;;;7.75;;
48516;SDS011;34310;51.904;4.256;2022-10-30T07:05:05;9.52;;;7.68;;
48516;SDS011;34310;51.904;4.256;2022-10-30T07:07:32;10.73;;;7.35;;
48516;SDS011;34310;51.904;4.256;2022-10-30T07:10:00;12.13;;;7.85;;
48516;SDS011;34310;51.904;4.256;2022-10-30T07:12:27;10.07;;;7.45;;
48516;SDS011;34310;51.904;4.256;2022-10-30T07:14:54;12.65;;;7.65;;
48516;SDS011;34310;51.904;4.256;2022-10-30T07:17:21;11.95;;;7.85;;
48516;SDS011;34310;51.904;4.256;2022-10-30T07:19:48;12.13;;;7.72;;
48516;SDS011;34310;51.904;4.256;2022-10-30T07:22:16;10.93;;;8.15;;
48516;SDS011;34310;51.904;4.256;2022-10-30T07:24:43;9.85;;;7.68;;
48516;SDS011;34310;51.904;4.256;2022-10-30T07:27:10;10.13;;;7.50;;
48516;SDS011;34310;51.904;4.256;2022-10-30T07:29:38;10.00;;;7.78;;
48516;SDS011;34310;51.904;4.256;2022-10-30T07:32:05;9.23;;;7.38;;
48516;SDS011;34310;51.904;4.256;2022-10-30T07:34:33;10.57;;;7.68;;
48516;SDS011;34310;51.904;4.256;2022-10-30T07:37:00;8.68;;;7.25;;
48516;SDS011;34310;51.904;4.256;2022-10-30T07:39:27;11.73;;;7.72;;
48516;SDS011;34310;51.904;4.256;2022-10-30T07:41:54;11.18;;;7.95;;
48516;SDS011;34310;51.904;4.256;2022-10-30T07:44:22;9.75;;;7.68;;
48516;SDS011;34310;51.904;4.256;2022-10-30T07:46:49;9.13;;;7.40;;
48516;SDS011;34310;51.904;4.256;2022-10-30T07:49:16;11.05;;;7.28;;
48516;SDS011;34310;51.904;4.256;2022-10-30T07:51:43;9.65;;;7.70;;
48516;SDS011;34310;51.904;4.256;2022-10-30T07:54:10;10.68;;;7.80;;
48516;SDS011;34310;51.904;4.256;2022-10-30T07:56:38;9.98;;;8.52;;
48516;SDS011;34310;51.904;4.256;2022-10-30T07:59:05;9.10;;;7.95;;
48516;SDS011;34310;51.904;4.256;2022-10-30T08:01:32;12.75;;;8.73;;
48516;SDS011;34310;51.904;4.256;2022-10-30T08:04:00;10.40;;;7.90;;
48516;SDS011;34310;51.904;4.256;2022-10-30T08:06:27;13.63;;;7.90;;
48516;SDS011;34310;51.904;4.256;2022-10-30T08:08:54;10.60;;;8.20;;
48516;SDS011;34310;51.904;4.256;2022-10-30T08:11:21;10.68;;;8.10;;
48516;SDS011;34310;51.904;4.256;2022-10-30T08:13:49;11.18;;;8.27;;
48516;SDS011;34310;51.904;4.256;2022-10-30T08:16:16;13.63;;;8.25;;
48516;SDS011;34310;51.904;4.256;2022-10-30T08:18:43;11.32;;;8.70;;
48516;SDS011;34310;51.904;4.256;2022-10-30T08:21:11;12.57;;;9.23;;
48516;SDS011;34310;51.904;4.256;2022-10-30T08:23:38;12.30;;;8.68;;
48516;SDS011;34310;51.904;4.256;2022-10-30T08:26:05;10.98;;;8.50;;
48516;SDS011;34310;51.904;4.256;2022-10-30T08:28:32;11.43;;;9.23;;
48516;SDS011;34310;51.904;4.256;2022-10-30T08:31:00;12.20;;;8.73;;
48516;SDS011;34310;51.904;4.256;2022-10-30T08:33:29;11.73;;;8.88;;
48516;SDS011;34310;51.904;4.256;2022-10-30T08:35:57;12.50;;;9.65;;
48516;SDS011;34310;51.904;4.256;2022-10-30T08:38:25;14.95;;;9.25;;
48516;SDS011;34310;51.904;4.256;2022-10-30T08:40:54;13.68;;;9.50;;
48516;SDS011;34310;51.904;4.256;2022-10-30T08:43:21;13.05;;;9.82;;
48516;SDS011;34310;51.904;4.256;2022-10-30T08:45:50;13.73;;;9.90;;
48516;SDS011;34310;51.904;4.256;2022-10-30T08:48:17;13.48;;;9.98;;
48516;SDS011;34310;51.904;4.256;2022-10-30T08:50:45;14.32;;;11.10;;
48516;SDS011;34310;51.904;4.256;2022-10-30T08:53:13;13.95;;;10.48;;
48516;SDS011;34310;51.904;4.256;2022-10-30T08:55:41;11.65;;;9.23;;
48516;SDS011;34310;51.904;4.256;2022-10-30T08:58:08;14.82;;;9.23;;
48516;SDS011;34310;51.904;4.256;2022-10-30T09:00:35;16.30;;;9.23;;
48516;SDS011;34310;51.904;4.256;2022-10-30T09:03:04;16.65;;;9.57;;
48516;SDS011;34310;51.904;4.256;2022-10-30T09:05:31;17.83;;;9.60;;
48516;SDS011;34310;51.904;4.256;2022-10-30T09:07:58;21.08;;;9.63;;
48516;SDS011;34310;51.904;4.256;2022-10-30T09:10:27;20.27;;;8.85;;
48516;SDS011;34310;51.904;4.256;2022-10-30T09:12:55;17.67;;;9.35;;
48516;SDS011;34310;51.904;4.256;2022-10-30T09:15:24;19.63;;;8.80;;
48516;SDS011;34310;51.904;4.256;2022-10-30T09:17:59;25.00;;;9.77;;
48516;SDS011;34310;51.904;4.256;2022-10-30T09:20:28;23.73;;;9.05;;
48516;SDS011;34310;51.904;4.256;2022-10-30T09:22:56;23.80;;;9.38;;
48516;SDS011;34310;51.904;4.256;2022-10-30T09:25:24;27.05;;;9.48;;
48516;SDS011;34310;51.904;4.256;2022-10-30T09:27:52;21.55;;;9.43;;
48516;SDS011;34310;51.904;4.256;2022-10-30T09:30:19;21.92;;;9.57;;
48516;SDS011;34310;51.904;4.256;2022-10-30T09:32:56;23.15;;;9.18;;
48516;SDS011;34310;51.904;4.256;2022-10-30T09:35:25;27.85;;;9.35;;
48516;SDS011;34310;51.904;4.256;2022-10-30T09:37:53;25.27;;;9.25;;
48516;SDS011;34310;51.904;4.256;2022-10-30T09:40:31;29.55;;;9.52;;
48516;SDS011;34310;51.904;4.256;2022-10-30T09:43:31;31.17;;;9.07;;
48516;SDS011;34310;51.904;4.256;2022-10-30T09:54:13;19.33;;;8.70;;
48516;SDS011;34310;51.904;4.256;2022-10-30T09:56:53;25.08;;;9.32;;
48516;SDS011;34310;51.904;4.256;2022-10-30T10:04:43;23.08;;;9.18;;
48516;SDS011;34310;51.904;4.256;2022-10-30T10:09:50;97.80;;;17.80;;
48516;SDS011;34310;51.904;4.256;2022-10-30T10:12:25;73.95;;;16.60;;
48516;SDS011;34310;51.904;4.256;2022-10-30T10:15:02;59.30;;;14.98;;
48516;SDS011;34310;51.904;4.256;2022-10-30T10:17:51;54.45;;;14.50;;
48516;SDS011;34310;51.904;4.256;2022-10-30T10:22:57;44.00;;;12.57;;
48516;SDS011;34310;51.904;4.256;2022-10-30T10:25:29;40.33;;;11.43;;
48516;SDS011;34310;51.904;4.256;2022-10-30T10:28:05;39.97;;;11.25;;
48516;SDS011;34310;51.904;4.256;2022-10-30T10:30:56;34.08;;;11.00;;
48516;SDS011;34310;51.904;4.256;2022-10-30T10:34:27;34.22;;;10.30;;
48516;SDS011;34310;51.904;4.256;2022-10-30T10:42:16;25.55;;;9.70;;
48516;SDS011;34310;51.904;4.256;2022-10-30T10:47:56;21.20;;;8.98;;
48516;SDS011;34310;51.904;4.256;2022-10-30T10:56:12;22.02;;;8.20;;
48516;SDS011;34310;51.904;4.256;2022-10-30T10:58:44;19.25;;;8.70;;
48516;SDS011;34310;51.904;4.256;2022-10-30T11:01:18;20.38;;;8.07;;
48516;SDS011;34310;51.904;4.256;2022-10-30T11:03:55;20.98;;;7.63;;
48516;SDS011;34310;51.904;4.256;2022-10-30T11:06:32;14.43;;;7.40;;
48516;SDS011;34310;51.904;4.256;2022-10-30T11:09:16;15.68;;;7.22;;
48516;SDS011;34310;51.904;4.256;2022-10-30T11:11:46;15.52;;;6.72;;
48516;SDS011;34310;51.904;4.256;2022-10-30T11:14:16;15.20;;;7.88;;
48516;SDS011;34310;51.904;4.256;2022-10-30T11:16:50;18.90;;;7.53;;
48516;SDS011;34310;51.904;4.256;2022-10-30T11:19:40;25.67;;;7.45;;
48516;SDS011;34310;51.904;4.256;2022-10-30T11:22:24;24.92;;;7.45;;
48516;SDS011;34310;51.904;4.256;2022-10-30T11:25:19;16.90;;;6.57;;
48516;SDS011;34310;51.904;4.256;2022-10-30T11:27:56;18.38;;;6.57;;
48516;SDS011;34310;51.904;4.256;2022-10-30T11:30:29;16.48;;;6.78;;
48516;SDS011;34310;51.904;4.256;2022-10-30T11:32:58;17.27;;;6.65;;
48516;SDS011;34310;51.904;4.256;2022-10-30T11:35:45;18.95;;;7.00;;
48516;SDS011;34310;51.904;4.256;2022-10-30T11:38:15;21.38;;;6.72;;
48516;SDS011;34310;51.904;4.256;2022-10-30T11:40:45;19.85;;;6.35;;
48516;SDS011;34310;51.904;4.256;2022-10-30T11:43:17;24.65;;;7.35;;
48516;SDS011;34310;51.904;4.256;2022-10-30T11:45:48;20.40;;;6.82;;
48516;SDS011;34310;51.904;4.256;2022-10-30T11:48:29;15.68;;;5.80;;
48516;SDS011;34310;51.904;4.256;2022-10-30T11:50:59;17.50;;;7.15;;
48516;SDS011;34310;51.904;4.256;2022-10-30T11:53:29;17.77;;;6.03;;
48516;SDS011;34310;51.904;4.256;2022-10-30T11:56:00;18.60;;;6.78;;
48516;SDS011;34310;51.904;4.256;2022-10-30T11:58:31;18.42;;;7.10;;
48516;SDS011;34310;51.904;4.256;2022-10-30T12:01:05;18.38;;;6.43;;
48516;SDS011;34310;51.904;4.256;2022-10-30T12:03:40;15.50;;;6.50;;
48516;SDS011;34310;51.904;4.256;2022-10-30T12:06:18;17.30;;;7.03;;
48516;SDS011;34310;51.904;4.256;2022-10-30T12:08:58;14.07;;;7.55;;
48516;SDS011;34310;51.904;4.256;2022-10-30T12:11:38;21.00;;;8.25;;
48516;SDS011;34310;51.904;4.256;2022-10-30T12:14:16;24.83;;;7.97;;
48516;SDS011;34310;51.904;4.256;2022-10-30T12:16:46;65.88;;;10.18;;
48516;SDS011;34310;51.904;4.256;2022-10-30T12:19:16;32.70;;;9.45;;
48516;SDS011;34310;51.904;4.256;2022-10-30T12:21:48;21.05;;;7.72;;
48516;SDS011;34310;51.904;4.256;2022-10-30T12:24:20;25.35;;;8.02;;
48516;SDS011;34310;51.904;4.256;2022-10-30T12:26:55;15.65;;;7.07;;
48516;SDS011;34310;51.904;4.256;2022-10-30T12:29:34;15.40;;;6.60;;
48516;SDS011;34310;51.904;4.256;2022-10-30T12:32:57;13.43;;;6.30;;
48516;SDS011;34310;51.904;4.256;2022-10-30T12:38:18;22.05;;;8.38;;
48516;SDS011;34310;51.904;4.256;2022-10-30T12:44:09;11.45;;;5.47;;
48516;SDS011;34310;51.904;4.256;2022-10-30T12:46:47;41.40;;;8.77;;
48516;SDS011;34310;51.904;4.256;2022-10-30T12:49:50;80.65;;;12.15;;
48516;SDS011;34310;51.904;4.256;2022-10-30T12:52:33;413.17;;;51.83;;
48516;SDS011;34310;51.904;4.256;2022-10-30T12:55:18;603.55;;;80.03;;
48516;SDS011;34310;51.904;4.256;2022-10-30T12:57:54;632.88;;;83.45;;
48516;SDS011;34310;51.904;4.256;2022-10-30T13:00:51;811.80;;;99.85;;
48516;SDS011;34310;51.904;4.256;2022-10-30T13:03:38;569.38;;;65.30;;
48516;SDS011;34310;51.904;4.256;2022-10-30T13:06:22;271.40;;;31.15;;
48516;SDS011;34310;51.904;4.256;2022-10-30T13:09:08;177.68;;;23.73;;
48516;SDS011;34310;51.904;4.256;2022-10-30T13:14:21;63.03;;;11.25;;
48516;SDS011;34310;51.904;4.256;2022-10-30T13:17:03;41.03;;;7.78;;
48516;SDS011;34310;51.904;4.256;2022-10-30T13:19:35;28.23;;;5.93;;
48516;SDS011;34310;51.904;4.256;2022-10-30T13:30:02;19.70;;;5.88;;
48516;SDS011;34310;51.904;4.256;2022-10-30T13:40:30;11.67;;;3.93;;
48516;SDS011;34310;51.904;4.256;2022-10-30T13:48:57;12.75;;;3.72;;
48516;SDS011;34310;51.904;4.256;2022-10-30T13:51:33;10.57;;;3.60;;
48516;SDS011;34310;51.904;4.256;2022-10-30T13:54:15;13.43;;;3.42;;
48516;SDS011;34310;51.904;4.256;2022-10-30T13:56:46;18.45;;;4.40;;
48516;SDS011;34310;51.904;4.256;2022-10-30T14:07:26;16.55;;;3.83;;
48516;SDS011;34310;51.904;4.256;2022-10-30T14:10:01;16.27;;;3.47;;
48516;SDS011;34310;51.904;4.256;2022-10-30T14:12:50;18.48;;;3.80;;
48516;SDS011;34310;51.904;4.256;2022-10-30T14:15:40;13.07;;;3.47;;
48516;SDS011;34310;51.904;4.256;2022-10-30T14:20:40;10.77;;;3.72;;
48516;SDS011;34310;51.904;4.256;2022-10-30T14:28:34;10.55;;;3.60;;
48516;SDS011;34310;51.904;4.256;2022-10-30T14:33:45;14.48;;;3.35;;
48516;SDS011;34310;51.904;4.256;2022-10-30T14:39:00;11.85;;;4.32;;
48516;SDS011;34310;51.904;4.256;2022-10-30T14:47:53;13.48;;;4.10;;
48516;SDS011;34310;51.904;4.256;2022-10-30T15:04:41;10.18;;;4.45;;
48516;SDS011;34310;51.904;4.256;2022-10-30T15:07:32;10.18;;;3.90;;
48516;SDS011;34310;51.904;4.256;2022-10-30T15:10:24;10.80;;;3.78;;
48516;SDS011;34310;51.904;4.256;2022-10-30T15:15:43;9.43;;;3.70;;
48516;SDS011;34310;51.904;4.256;2022-10-30T15:18:14;13.85;;;3.85;;
48516;SDS011;34310;51.904;4.256;2022-10-30T15:20:51;10.50;;;4.05;;
48516;SDS011;34310;51.904;4.256;2022-10-30T15:25:53;13.93;;;3.88;;
48516;SDS011;34310;51.904;4.256;2022-10-30T15:28:27;10.30;;;3.55;;
48516;SDS011;34310;51.904;4.256;2022-10-30T15:30:58;11.15;;;3.80;;
48516;SDS011;34310;51.904;4.256;2022-10-30T15:33:26;11.00;;;3.50;;
48516;SDS011;34310;51.904;4.256;2022-10-30T15:35:58;16.27;;;3.78;;
48516;SDS011;34310;51.904;4.256;2022-10-30T15:38:26;13.73;;;4.03;;
48516;SDS011;34310;51.904;4.256;2022-10-30T15:40:57;9.43;;;3.92;;
48516;SDS011;34310;51.904;4.256;2022-10-30T15:43:28;14.55;;;4.70;;
48516;SDS011;34310;51.904;4.256;2022-10-30T15:45:58;11.80;;;5.03;;
48516;SDS011;34310;51.904;4.256;2022-10-30T15:48:28;13.18;;;4.90;;
48516;SDS011;34310;51.904;4.256;2022-10-30T15:51:05;13.63;;;5.88;;
48516;SDS011;34310;51.904;4.256;2022-10-30T15:53:40;11.95;;;4.60;;
48516;SDS011;34310;51.904;4.256;2022-10-30T15:56:30;12.05;;;5.07;;
48516;SDS011;34310;51.904;4.256;2022-10-30T15:58:59;13.45;;;4.47;;
48516;SDS011;34310;51.904;4.256;2022-10-30T16:01:33;13.23;;;4.75;;
48516;SDS011;34310;51.904;4.256;2022-10-30T16:04:15;15.95;;;4.47;;
48516;SDS011;34310;51.904;4.256;2022-10-30T16:06:59;20.42;;;5.47;;
48516;SDS011;34310;51.904;4.256;2022-10-30T16:09:30;17.53;;;5.13;;
48516;SDS011;34310;51.904;4.256;2022-10-30T16:11:57;16.50;;;5.78;;
48516;SDS011;34310;51.904;4.256;2022-10-30T16:14:29;20.10;;;5.20;;
48516;SDS011;34310;51.904;4.256;2022-10-30T16:17:00;19.20;;;5.20;;
48516;SDS011;34310;51.904;4.256;2022-10-30T16:19:37;18.65;;;5.35;;
48516;SDS011;34310;51.904;4.256;2022-10-30T16:22:11;17.65;;;5.65;;
48516;SDS011;34310;51.904;4.256;2022-10-30T16:24:42;14.95;;;5.93;;
48516;SDS011;34310;51.904;4.256;2022-10-30T16:27:14;15.05;;;5.97;;
48516;SDS011;34310;51.904;4.256;2022-10-30T16:29:54;25.48;;;7.18;;
48516;SDS011;34310;51.904;4.256;2022-10-30T16:32:23;28.00;;;8.02;;
48516;SDS011;34310;51.904;4.256;2022-10-30T16:34:57;21.60;;;8.20;;
48516;SDS011;34310;51.904;4.256;2022-10-30T16:37:33;19.27;;;8.18;;
48516;SDS011;34310;51.904;4.256;2022-10-30T16:40:05;19.33;;;8.27;;
48516;SDS011;34310;51.904;4.256;2022-10-30T16:42:39;22.15;;;10.02;;
48516;SDS011;34310;51.904;4.256;2022-10-30T16:47:50;25.38;;;10.05;;
48516;SDS011;34310;51.904;4.256;2022-10-30T16:50:35;24.48;;;10.57;;
48516;SDS011;34310;51.904;4.256;2022-10-30T16:53:24;23.67;;;10.65;;
48516;SDS011;34310;51.904;4.256;2022-10-30T16:55:51;22.20;;;11.65;;
48516;SDS011;34310;51.904;4.256;2022-10-30T16:58:21;20.65;;;11.90;;
48516;SDS011;34310;51.904;4.256;2022-10-30T17:00:55;16.42;;;10.77;;
48516;SDS011;34310;51.904;4.256;2022-10-30T17:03:31;18.23;;;12.68;;
48516;SDS011;34310;51.904;4.256;2022-10-30T17:06:04;22.88;;;12.70;;
48516;SDS011;34310;51.904;4.256;2022-10-30T17:08:40;19.98;;;13.48;;